Flight Track Log - Related Links

Times and Time Zones

All times are in EDT time to prevent confusion due to time zone crossing. See the DAL1550 flight status page for this flight to view local times or setup timezone preferences in your user account.

Time Position Orientation Groundspeed Altitude Reporting Facility
EDT Latitude Longitude Course Direction KTS MPH feet Rate Location/Type
Fri 10:27:12 AM 36.0747 -115.1819 94° East 207 238 3,000  Level Los Angeles Center
Fri 10:28:19 AM 36.0783 -115.2686 273° West 236 272 5,600 2,115 Climbing Los Angeles Center
Fri 10:29:00 AM 36.1833 -115.0565 90° East  Level FlightAware Approximate
Fri 10:29:14 AM 36.1258 -115.2914 339° North 243 280 7,300  Level Los Angeles Center
Fri 10:30:00 AM 36.1833 -114.9005 90° East  Level FlightAware Approximate
Fri 10:31:00 AM 36.1987 -114.7462 94° East  Level FlightAware Approximate
Fri 10:31:18 AM 36.1958 -115.1192 63° Northeast 314 361 11,300  Level Los Angeles Center
Fri 10:32:00 AM 36.1891 -114.5906 94° East  Level FlightAware Approximate
Fri 10:32:19 AM 36.1972 -114.9900 89° East 371 427 12,500  Level Los Angeles Center
Fri 10:33:33 AM 36.2000 -114.8508 89° East 400 460 14,600 1,897 Climbing Los Angeles Center
Fri 10:34:35 AM 36.1989 -114.6775 90° East 420 483 16,800 1,887 Climbing Los Angeles Center
Fri 10:35:37 AM 36.1964 -114.5303 91° East 427 491 18,500 1,597 Climbing Los Angeles Center
Fri 10:36:39 AM 36.1944 -114.3786 91° East 437 503 20,100 1,403 Climbing Los Angeles Center
Fri 10:37:41 AM 36.2086 -114.2281 83° East 446 513 21,400 1,268 Climbing Los Angeles Center
Fri 10:38:42 AM 36.2561 -114.0508 72° East 453 521 22,700 1,067 Climbing Los Angeles Center
Fri 10:39:56 AM 36.2969 -113.8997 71° East 461 531 23,800 1,279 Climbing Los Angeles Center
Fri 10:40:58 AM 36.3528 -113.7206 69° East 466 536 25,600 1,500 Climbing Los Angeles Center
Fri 10:42:00 AM 36.4403 -113.6119 45° Northeast 450 518 26,900 1,210 Climbing Los Angeles Center
Fri 10:43:02 AM 36.5394 -113.5083 40° Northeast 442 509 28,100 1,016 Climbing Los Angeles Center
Fri 10:44:04 AM 36.6350 -113.4108 39° Northeast 443 510 29,000 889 Climbing Los Angeles Center
Fri 10:45:17 AM 36.7300 -113.3114 40° Northeast 446 513 30,100 889 Climbing Los Angeles Center
Fri 10:46:19 AM 36.8436 -113.1947 39° Northeast 441 507 31,000 435 Climbing Los Angeles Center
Fri 10:47:21 AM 36.9547 -113.0786 40° Northeast 438 504 31,000  Level Los Angeles Center
Fri 10:48:23 AM 37.0483 -112.9811 40° Northeast 439 505 31,000  Level Los Angeles Center
Fri 10:49:25 AM 37.1411 -112.8842 40° Northeast 437 503 31,000  Level Los Angeles Center
Fri 10:49:42 AM 37.1578 -112.8647 43° Northeast 437 503 31,000  Level Salt Lake Center
Fri 10:50:44 AM 37.2678 -112.7494 40° Northeast 433 498 31,000  Level Salt Lake Center
Fri 10:51:46 AM 37.3586 -112.6531 40° Northeast 434 499 31,000  Level Salt Lake Center
Fri 10:52:47 AM 37.4492 -112.5569 40° Northeast 433 498 31,000  Level Salt Lake Center
Fri 10:53:49 AM 37.5392 -112.4611 40° Northeast 431 496 31,000  Level Salt Lake Center
Fri 10:54:52 AM 37.6292 -112.3661 40° Northeast 428 493 31,000  Level Salt Lake Center
Fri 10:55:53 AM 37.7269 -112.2406 45° Northeast 425 489 31,000  Level Salt Lake Center
Fri 10:56:55 AM 37.7950 -112.1200 54° Northeast 423 487 31,000  Level Salt Lake Center
Fri 10:57:57 AM 37.8636 -112.0000 54° Northeast 422 486 31,000  Level Salt Lake Center
Fri 10:58:59 AM 37.9322 -111.8794 54° Northeast 423 487 31,000  Level Salt Lake Center
Fri 11:00:01 AM 38.0011 -111.7592 54° Northeast 423 487 31,000  Level Salt Lake Center
Fri 11:01:03 AM 38.0697 -111.6394 54° Northeast 422 486 31,000  Level Salt Lake Center
Fri 11:02:05 AM 38.1522 -111.4975 54° Northeast 416 479 31,000  Level Salt Lake Center
Fri 11:03:07 AM 38.2178 -111.3764 55° Northeast 416 479 31,000  Level Salt Lake Center
Fri 11:04:08 AM 38.2856 -111.2569 54° Northeast 417 480 31,000  Level Salt Lake Center
Fri 11:05:10 AM 38.3553 -111.1364 54° Northeast 422 486 31,000  Level Salt Lake Center
Fri 11:06:12 AM 38.4214 -111.0150 55° Northeast 420 483 31,000  Level Salt Lake Center
Fri 11:07:14 AM 38.4933 -110.8853 55° Northeast 421 484 31,000  Level Salt Lake Center
Fri 11:08:16 AM 38.5711 -110.7531 53° Northeast 419 482 31,000  Level Salt Lake Center
Fri 11:09:31 AM 38.6464 -110.6164 55° Northeast 420 483 31,000  Level Salt Lake Center
Fri 11:10:33 AM 38.7203 -110.4806 55° Northeast 419 482 31,000  Level Salt Lake Center
Fri 11:11:35 AM 38.7839 -110.3653 55° Northeast 415 478 31,000  Level Salt Lake Center
Fri 11:12:01 AM 38.8139 -110.3064 57° Northeast 414 476 31,000  Level Denver Center
Fri 11:13:03 AM 38.8869 -110.1711 55° Northeast 413 475 31,000  Level Denver Center
Fri 11:13:39 AM 38.9194 -110.1147 53° Northeast 413 475 31,000  Level Salt Lake Center
Fri 11:14:41 AM 38.9936 -109.9800 55° Northeast 413 475 31,000  Level Salt Lake Center
Fri 11:15:43 AM 39.0556 -109.8633 56° Northeast 412 474 31,000  Level Salt Lake Center
Fri 11:16:09 AM 39.0856 -109.8047 57° Northeast 409 471 31,000  Level Denver Center
Fri 11:16:45 AM 39.1281 -109.7286 54° Northeast 411 473 31,000  Level Salt Lake Center
Fri 11:17:11 AM 39.1469 -109.6856 60° Northeast 415 478 31,000  Level Denver Center
Fri 11:17:47 AM 39.1789 -109.6033 63° Northeast 412 474 31,000  Level Salt Lake Center
Fri 11:18:49 AM 39.2342 -109.4531 65° Northeast 416 479 31,000  Level Salt Lake Center
Fri 11:19:51 AM 39.2803 -109.3244 65° Northeast 414 476 31,000  Level Salt Lake Center
Fri 11:20:17 AM 39.3019 -109.2578 67° East 415 478 31,000  Level Denver Center
Fri 11:21:19 AM 39.3492 -109.1292 65° Northeast 416 479 31,000  Level Denver Center
Fri 11:22:21 AM 39.4033 -108.9797 65° Northeast 413 475 31,000  Level Denver Center
Fri 11:23:23 AM 39.4497 -108.8492 65° Northeast 418 481 31,000  Level Denver Center
Fri 11:24:25 AM 39.5031 -108.6997 65° Northeast 418 481 31,000  Level Denver Center
Fri 11:25:27 AM 39.5489 -108.5714 65° Northeast 416 479 31,000  Level Denver Center
Fri 11:26:29 AM 39.6019 -108.4214 65° Northeast 415 478 31,000  Level Denver Center
Fri 11:27:31 AM 39.6569 -108.2672 65° Northeast 421 484 31,000  Level Denver Center
Fri 11:28:33 AM 39.7025 -108.1369 66° East 416 479 31,000  Level Denver Center
Fri 11:29:35 AM 39.7472 -108.0064 66° East 416 479 31,000  Level Denver Center
Fri 11:30:38 AM 39.8000 -107.8531 66° East 418 481 31,000  Level Denver Center
Fri 11:31:40 AM 39.8450 -107.7206 66° East 417 480 31,000  Level Denver Center
Fri 11:32:42 AM 39.8981 -107.5644 66° East 422 486 31,000  Level Denver Center
Fri 11:33:44 AM 39.9442 -107.4289 66° East 427 491 31,000  Level Denver Center
Fri 11:34:46 AM 39.9986 -107.2717 66° East 426 490 31,000  Level Denver Center
Fri 11:35:48 AM 40.0442 -107.1339 67° East 432 497 31,000  Level Denver Center
Fri 11:36:50 AM 40.0961 -106.9747 67° East 427 491 31,000  Level Denver Center
Fri 11:37:52 AM 40.1431 -106.8383 66° East 429 494 31,000  Level Denver Center
Fri 11:38:54 AM 40.1961 -106.6781 67° East 428 493 31,000  Level Denver Center
Fri 11:39:56 AM 40.2467 -106.5297 66° East 430 495 31,000  Level Denver Center
Fri 11:40:58 AM 40.2958 -106.3800 67° East 430 495 31,000  Level Denver Center
Fri 11:42:00 AM 40.3397 -106.2444 67° East 425 489 31,000  Level Denver Center
Fri 11:43:02 AM 40.3842 -106.1033 67° East 427 491 31,000  Level Denver Center
Fri 11:44:04 AM 40.4394 -105.9325 67° East 431 496 31,000  Level Denver Center
Fri 11:45:06 AM 40.4856 -105.7869 67° East 429 494 31,000  Level Denver Center
Fri 11:46:08 AM 40.5308 -105.6436 67° East 423 487 31,000  Level Denver Center
Fri 11:47:11 AM 40.5775 -105.4981 67° East 424 488 31,000  Level Denver Center
Fri 11:48:13 AM 40.6253 -105.3514 67° East 427 491 31,000  Level Denver Center
Fri 11:49:15 AM 40.6708 -105.2036 68° East 431 496 31,000  Level Denver Center
Fri 11:50:17 AM 40.7164 -105.0572 68° East 426 490 31,000  Level Denver Center
Fri 11:51:19 AM 40.7631 -104.9081 68° East 433 498 31,000  Level Denver Center
Fri 11:52:21 AM 40.8158 -104.7353 68° East 432 497 31,000  Level Denver Center
Fri 11:53:23 AM 40.8625 -104.5883 67° East 430 495 31,000  Level Denver Center
Fri 11:54:25 AM 40.9069 -104.4403 68° East 430 495 31,000  Level Denver Center
Fri 11:55:27 AM 40.9519 -104.2922 68° East 430 495 31,000  Level Denver Center
Fri 11:56:29 AM 41.0003 -104.1308 68° East 431 496 31,000  Level Denver Center
Fri 11:57:31 AM 41.0414 -103.9897 69° East 431 496 31,000  Level Denver Center
Fri 11:58:33 AM 41.0917 -103.8250 68° East 433 498 31,000  Level Denver Center
Fri 11:59:35 AM 41.1331 -103.6836 69° East 431 496 31,000  Level Denver Center
Fri 12:00:37 PM 41.1817 -103.5169 69° East 434 499 31,000  Level Denver Center
Fri 12:01:39 PM 41.2239 -103.3744 68° East 435 501 31,000  Level Denver Center
Fri 12:02:41 PM 41.2644 -103.2303 69° East 437 503 31,000  Level Denver Center
Fri 12:03:43 PM 41.3131 -103.0625 69° East 437 503 31,000  Level Denver Center
Fri 12:04:45 PM 41.3550 -102.9183 69° East 437 503 31,000  Level Denver Center
Fri 12:05:47 PM 41.4036 -102.7494 69° East 439 505 31,000  Level Denver Center
Fri 12:06:49 PM 41.4478 -102.5969 69° East 438 504 31,000  Level Denver Center
Fri 12:07:52 PM 41.4944 -102.4264 70° East 438 504 31,000  Level Denver Center
Fri 12:08:53 PM 41.5356 -102.2794 69° East 440 506 31,000  Level Denver Center
Fri 12:09:55 PM 41.5764 -102.1322 70° East 442 509 31,000  Level Denver Center
Fri 12:10:58 PM 41.6244 -101.9606 69° East 443 510 31,000  Level Denver Center
Fri 12:12:00 PM 41.6658 -101.8128 69° East 442 509 31,000  Level Denver Center
Fri 12:13:02 PM 41.7125 -101.6397 70° East 442 509 31,000  Level Denver Center
Fri 12:14:04 PM 41.7539 -101.4906 70° East 444 511 31,000  Level Denver Center
Fri 12:15:06 PM 41.7992 -101.3164 71° East 443 510 31,000  Level Denver Center
Fri 12:16:08 PM 41.8400 -101.1661 70° East 446 513 31,000  Level Denver Center
Fri 12:17:10 PM 41.8869 -100.9911 70° East 446 513 31,000  Level Denver Center
Fri 12:18:12 PM 41.9272 -100.8408 70° East 446 513 31,000  Level Denver Center
Fri 12:19:14 PM 41.9719 -100.6653 71° East 445 512 31,000  Level Denver Center
Fri 12:20:16 PM 42.0125 -100.5133 70° East 449 517 31,000  Level Denver Center
Fri 12:21:18 PM 42.0522 -100.3617 71° East 450 518 31,000  Level Denver Center
Fri 12:22:20 PM 42.0978 -100.1842 71° East 449 517 31,000  Level Denver Center
Fri 12:23:15 PM 42.1358 -100.0336 71° East 447 514 31,000  Level Minneapolis Center
Fri 12:24:17 PM 42.1769 -99.8753 71° East 447 514 31,000  Level Minneapolis Center
Fri 12:25:19 PM 42.2175 -99.7153 71° East 448 516 31,000  Level Minneapolis Center
Fri 12:26:28 PM 42.2647 -99.5200 72° East 451 519 31,000  Level Denver Center
Fri 12:27:31 PM 42.3053 -99.3600 71° East 450 518 31,000  Level Denver Center
Fri 12:28:24 PM 42.3364 -99.2311 72° East 452 520 31,000  Level Minneapolis Center
Fri 12:29:26 PM 42.3767 -99.0683 71° East 454 522 31,000  Level Minneapolis Center
Fri 12:30:28 PM 42.4156 -98.9053 72° East 454 522 31,000  Level Minneapolis Center
Fri 12:31:30 PM 42.4633 -98.7119 71° East 452 520 31,000  Level Minneapolis Center
Fri 12:32:32 PM 42.5372 -98.5772 53° Northeast 448 516 31,000  Level Minneapolis Center
Fri 12:33:34 PM 42.6192 -98.4483 49° Northeast 450 518 31,000  Level Minneapolis Center
Fri 12:34:36 PM 42.7008 -98.3186 49° Northeast 451 519 31,000  Level Minneapolis Center
Fri 12:35:38 PM 42.7878 -98.1817 49° Northeast 447 514 31,000  Level Minneapolis Center
Fri 12:36:41 PM 42.8669 -98.0492 51° Northeast 450 518 31,000  Level Minneapolis Center
Fri 12:37:43 PM 42.9483 -97.9192 49° Northeast 451 519 31,000  Level Minneapolis Center
Fri 12:38:45 PM 43.0286 -97.7908 49° Northeast 448 516 31,000  Level Minneapolis Center
Fri 12:39:47 PM 43.1244 -97.6328 50° Northeast 449 517 31,000  Level Minneapolis Center
Fri 12:40:49 PM 43.2050 -97.5033 49° Northeast 448 516 31,000  Level Minneapolis Center
Fri 12:41:51 PM 43.2844 -97.3736 50° Northeast 447 514 31,000  Level Minneapolis Center
Fri 12:42:53 PM 43.3656 -97.2431 49° Northeast 450 518 31,000  Level Minneapolis Center
Fri 12:43:55 PM 43.4450 -97.1136 50° Northeast 445 512 31,000  Level Minneapolis Center
Fri 12:44:57 PM 43.5253 -96.9836 50° Northeast 447 514 31,000  Level Minneapolis Center
Fri 12:45:59 PM 43.6153 -96.8322 51° Northeast 430 495 31,000  Level Minneapolis Center
Fri 12:47:01 PM 43.6903 -96.7192 47° Northeast 406 467 31,000 -48 Level Minneapolis Center
Fri 12:48:03 PM 43.7947 -96.6644 21° North 400 460 30,900 -532 Descending Minneapolis Center
Fri 12:49:05 PM 43.8975 -96.6136 20° North 393 452 29,900 -871 Descending Minneapolis Center
Fri 12:50:07 PM 43.9908 -96.5419 29° Northeast 399 459 29,100 -629 Descending Minneapolis Center
Fri 12:51:09 PM 44.0419 -96.4067 62° Northeast 403 464 28,600 -629 Descending Minneapolis Center
Fri 12:52:11 PM 44.0978 -96.2436 64° Northeast 397 457 27,800 -677 Descending Minneapolis Center
Fri 12:53:13 PM 44.1433 -96.1114 64° Northeast 395 455 27,200 -581 Descending Minneapolis Center
Fri 12:54:15 PM 44.1892 -95.9783 64° Northeast 391 450 26,600 -581 Descending Minneapolis Center
Fri 12:55:17 PM 44.2344 -95.8431 65° Northeast 389 448 26,000 -581 Descending Minneapolis Center
Fri 12:56:19 PM 44.2886 -95.6803 65° Northeast 388 447 25,400 -484 Descending Minneapolis Center
Fri 12:57:21 PM 44.3325 -95.5447 66° East 386 444 25,000 -435 Descending Minneapolis Center
Fri 12:58:23 PM 44.3783 -95.4108 64° Northeast 384 442 24,500 -432 Descending Minneapolis Center
Fri 12:59:26 PM 44.4231 -95.2739 65° Northeast 386 444 24,100 -480 Descending Minneapolis Center
Fri 01:00:28 PM 44.4706 -95.1233 66° East 419 482 23,500 -677 Descending Minneapolis Center
Fri 01:01:30 PM 44.5181 -94.9292 71° East 438 504 22,700 -1,742 Descending Minneapolis Center
Fri 01:02:32 PM 44.5539 -94.7694 72° East 435 501 19,900 -2,468 Descending Minneapolis Center
Fri 01:03:34 PM 44.5878 -94.6269 71° East 422 486 17,600 -2,226 Descending Minneapolis Center
Fri 01:04:36 PM 44.6225 -94.4758 72° East 408 470 15,300 -2,419 Descending Minneapolis Center
Fri 01:05:38 PM 44.6625 -94.3033 72° East 389 448 12,600 -2,081 Descending Minneapolis Center
Fri 01:06:40 PM 44.6925 -94.1644 73° East 374 430 11,000 -774 Descending Minneapolis Center
Fri 01:07:42 PM 44.7225 -94.0250 73° East 374 430 11,000 -242 Level Minneapolis Center
Fri 01:08:44 PM 44.7528 -93.8878 73° East 371 427 10,500 -677 Descending Minneapolis Center
Fri 01:09:46 PM 44.7800 -93.7675 72° East 324 373 9,600 -720 Descending Minneapolis Center
Fri 01:10:49 PM 44.8042 -93.6525 73° East 306 352 9,000 -528 Descending Minneapolis Center
Fri 01:11:51 PM 44.8344 -93.5156 73° East 305 351 8,500 -484 Descending Minneapolis Center
Fri 01:12:53 PM 44.8583 -93.4061 73° East 291 335 8,000 -242 Descending Minneapolis Center
Fri 01:13:55 PM 44.8264 -93.3164 117° Southeast 257 296 8,000  Level Minneapolis Center
Fri 01:14:56 PM 44.7908 -93.2281 120° Southeast 255 293 8,000 -290 Level Minneapolis Center
Fri 01:15:59 PM 44.7547 -93.1386 120° Southeast 252 290 7,400 -960 Descending Minneapolis Center
Fri 01:17:01 PM 44.7211 -93.0575 120° Southeast 241 277 6,000 -1,306 Descending Minneapolis Center
Fri 01:18:03 PM 44.7414 -92.9889 67° East 229 264 4,700 -1,258 Descending Minneapolis Center

Login

Don't have an account? Register now (free) for customized features, flight alerts, and more!